createdAt,value
2022-10-02T00:01:19.760Z,4.00
2022-10-02T00:03:48.566Z,4.23
2022-10-02T00:06:22.337Z,3.73
2022-10-02T00:08:55.776Z,4.30
2022-10-02T00:11:25.081Z,3.70
2022-10-02T00:13:57.351Z,3.90
2022-10-02T00:16:29.801Z,3.47
2022-10-02T00:18:57.958Z,3.40
2022-10-02T00:21:37.884Z,3.97
2022-10-02T00:24:09.691Z,3.97
2022-10-02T00:26:42.046Z,3.47
2022-10-02T00:29:29.199Z,3.77
2022-10-02T00:32:10.274Z,4.40
2022-10-02T00:34:48.632Z,3.87
2022-10-02T00:37:27.200Z,4.13
2022-10-02T00:40:11.227Z,4.17
2022-10-02T00:43:03.758Z,4.00
2022-10-02T00:46:05.118Z,4.57
2022-10-02T00:48:50.006Z,4.13
2022-10-02T00:51:29.794Z,4.77
2022-10-02T00:54:08.691Z,4.07
2022-10-02T00:56:45.806Z,3.70
2022-10-02T00:59:32.868Z,4.27
2022-10-02T01:02:07.281Z,3.90
2022-10-02T01:04:37.458Z,4.00
2022-10-02T01:07:07.333Z,3.87
2022-10-02T01:09:35.506Z,3.87
2022-10-02T01:12:05.253Z,3.70
2022-10-02T01:14:34.708Z,4.03
2022-10-02T01:17:03.378Z,3.50
2022-10-02T01:19:38.115Z,3.50
2022-10-02T01:22:12.386Z,3.80
2022-10-02T01:24:48.601Z,3.63
2022-10-02T01:27:16.592Z,3.30
2022-10-02T01:29:45.437Z,3.33
2022-10-02T01:32:13.151Z,3.63
2022-10-02T01:34:41.395Z,3.40
2022-10-02T01:37:09.949Z,3.20
2022-10-02T01:39:38.304Z,3.33
2022-10-02T01:42:07.339Z,3.70
2022-10-02T01:44:35.193Z,3.30
2022-10-02T01:47:08.298Z,3.20
2022-10-02T01:49:47.182Z,3.27
2022-10-02T01:52:27.367Z,3.37
2022-10-02T01:55:26.245Z,3.40
2022-10-02T01:58:06.186Z,3.40
2022-10-02T02:00:51.156Z,3.73
2022-10-02T02:03:23.828Z,3.37
2022-10-02T02:05:57.361Z,3.00
2022-10-02T02:08:31.696Z,3.87
2022-10-02T02:11:11.011Z,2.90
2022-10-02T02:13:46.305Z,2.80
2022-10-02T02:16:23.107Z,3.00
2022-10-02T02:18:54.545Z,3.43
2022-10-02T02:21:28.848Z,2.80
2022-10-02T02:23:58.770Z,3.30
2022-10-02T02:26:29.122Z,2.30
2022-10-02T02:29:03.439Z,3.23
2022-10-02T02:31:37.319Z,3.53
2022-10-02T02:34:09.688Z,3.40
2022-10-02T02:36:42.227Z,3.30
2022-10-02T02:39:13.147Z,2.40
2022-10-02T02:41:46.039Z,3.27
2022-10-02T02:44:19.514Z,2.27
2022-10-02T02:47:07.598Z,2.60
2022-10-02T02:49:49.790Z,3.30
2022-10-02T02:52:22.664Z,2.80
2022-10-02T02:54:55.005Z,2.93
2022-10-02T02:57:29.037Z,2.80
2022-10-02T03:00:00.173Z,3.10
2022-10-02T03:02:28.014Z,2.77
2022-10-02T03:04:55.729Z,3.03
2022-10-02T03:07:23.456Z,3.03
2022-10-02T03:10:01.480Z,3.00
2022-10-02T03:12:39.833Z,3.37
2022-10-02T03:15:30.645Z,3.63
2022-10-02T03:18:16.362Z,3.20
2022-10-02T03:20:50.307Z,3.60
2022-10-02T03:23:24.860Z,4.20
2022-10-02T03:26:00.034Z,3.93
2022-10-02T03:28:54.441Z,3.57
2022-10-02T03:31:26.153Z,3.30
2022-10-02T03:33:54.651Z,3.67
2022-10-02T03:36:24.610Z,4.07
2022-10-02T03:39:19.860Z,4.40
2022-10-02T03:41:42.140Z,4.60
2022-10-02T03:44:09.826Z,3.37
2022-10-02T03:46:39.436Z,3.70
2022-10-02T03:49:07.439Z,4.23
2022-10-02T03:51:35.124Z,4.23
2022-10-02T03:54:02.830Z,3.80
2022-10-02T03:56:37.737Z,4.00
2022-10-02T03:59:15.894Z,3.80
2022-10-02T04:01:50.255Z,4.13
2022-10-02T04:04:23.855Z,5.03
2022-10-02T04:06:56.891Z,3.83
2022-10-02T04:09:30.475Z,3.93
2022-10-02T04:12:02.518Z,4.77
2022-10-02T04:14:36.395Z,4.20
2022-10-02T04:17:09.390Z,4.00
2022-10-02T04:19:42.511Z,4.50
2022-10-02T04:22:18.031Z,4.40
2022-10-02T04:24:50.427Z,4.60
2022-10-02T04:27:23.136Z,5.40
2022-10-02T04:29:56.170Z,4.53
2022-10-02T04:32:27.514Z,5.27
2022-10-02T04:34:55.559Z,5.00
2022-10-02T04:37:57.834Z,5.93
2022-10-02T04:40:36.537Z,5.73
2022-10-02T04:43:19.782Z,5.80
2022-10-02T04:45:59.820Z,5.57
2022-10-02T04:48:47.340Z,5.53
2022-10-02T04:51:28.008Z,6.37
2022-10-02T04:54:13.204Z,5.67
2022-10-02T04:56:56.877Z,6.87
2022-10-02T04:59:40.705Z,6.77
2022-10-02T05:02:24.721Z,7.40
2022-10-02T05:05:16.892Z,6.53
2022-10-02T05:08:00.043Z,7.03
2022-10-02T05:10:50.230Z,6.70
2022-10-02T05:13:47.973Z,6.90
2022-10-02T05:16:33.902Z,6.87
2022-10-02T05:19:14.531Z,6.60
2022-10-02T05:22:05.438Z,6.80
2022-10-02T05:24:47.834Z,7.67
2022-10-02T05:27:30.898Z,7.27
2022-10-02T05:30:08.139Z,7.57
2022-10-02T05:32:56.076Z,7.40
2022-10-02T05:35:37.213Z,8.10
2022-10-02T05:38:20.633Z,8.03
2022-10-02T05:40:58.854Z,7.47
2022-10-02T05:43:34.318Z,7.50
2022-10-02T05:46:09.536Z,7.33
2022-10-02T05:48:42.163Z,7.00
2022-10-02T05:51:14.866Z,7.00
2022-10-02T05:53:50.316Z,7.50
2022-10-02T05:56:23.710Z,7.47
2022-10-02T05:58:54.637Z,7.40
2022-10-02T06:01:27.119Z,7.77
2022-10-02T06:04:06.780Z,8.00
2022-10-02T06:06:40.009Z,7.23
2022-10-02T06:09:19.843Z,6.37
2022-10-02T06:11:52.621Z,7.17
2022-10-02T06:14:26.909Z,6.23
2022-10-02T06:16:58.686Z,5.00
2022-10-02T06:19:31.327Z,4.50
2022-10-02T06:22:05.853Z,4.57
2022-10-02T06:24:39.998Z,4.67
2022-10-02T06:27:16.451Z,4.53
2022-10-02T06:29:51.123Z,4.97
2022-10-02T06:32:27.696Z,4.23
2022-10-02T06:34:56.792Z,3.97
2022-10-02T06:37:50.867Z,4.20
2022-10-02T06:40:42.844Z,3.77
2022-10-02T06:43:21.504Z,4.37
2022-10-02T06:45:58.445Z,4.03
2022-10-02T06:48:34.481Z,3.97
2022-10-02T06:51:12.218Z,4.20
2022-10-02T06:54:04.720Z,4.00
2022-10-02T06:56:46.882Z,4.60
2022-10-02T06:59:26.930Z,5.20
2022-10-02T07:02:05.190Z,5.07
2022-10-02T07:04:59.625Z,4.97
2022-10-02T07:07:44.612Z,5.87
2022-10-02T07:10:31.488Z,5.97
2022-10-02T07:13:17.787Z,6.30
2022-10-02T07:16:17.263Z,6.30
2022-10-02T07:19:01.527Z,5.20
2022-10-02T07:21:39.109Z,5.20
2022-10-02T07:24:27.078Z,4.57
2022-10-02T07:26:58.703Z,4.37
2022-10-02T07:29:38.776Z,3.80
2022-10-02T07:32:36.456Z,3.63
2022-10-02T07:35:19.577Z,3.90
2022-10-02T07:37:59.029Z,3.47
2022-10-02T07:40:37.554Z,2.87
2022-10-02T07:43:18.031Z,3.13
2022-10-02T07:45:53.910Z,3.80
2022-10-02T07:48:47.318Z,2.73
2022-10-02T07:51:43.150Z,3.33
2022-10-02T07:54:32.084Z,2.77
2022-10-02T07:57:09.647Z,2.63
2022-10-02T07:59:43.381Z,2.50
2022-10-02T08:02:25.444Z,2.73
2022-10-02T08:04:58.813Z,2.90
2022-10-02T08:07:28.334Z,2.90
2022-10-02T08:09:58.666Z,3.30
2022-10-02T08:12:31.700Z,3.60
2022-10-02T08:15:02.054Z,4.40
2022-10-02T08:17:36.916Z,3.70
2022-10-02T08:20:14.533Z,3.37
2022-10-02T08:22:47.386Z,3.20
2022-10-02T08:25:21.941Z,2.97
2022-10-02T08:27:57.694Z,2.80
2022-10-02T08:30:25.496Z,2.95
2022-10-02T08:32:55.220Z,2.47
2022-10-02T08:35:29.115Z,3.33
2022-10-02T08:38:13.960Z,2.67
2022-10-02T08:41:05.042Z,3.07
2022-10-02T08:44:02.964Z,2.80
2022-10-02T08:46:58.558Z,3.10
2022-10-02T08:50:30.081Z,2.97
2022-10-02T08:53:28.639Z,2.73
2022-10-02T08:56:20.433Z,2.70
2022-10-02T08:59:25.993Z,2.97
2022-10-02T09:02:33.706Z,3.20
2022-10-02T09:05:39.449Z,3.23
2022-10-02T09:08:48.949Z,3.00
2022-10-02T09:11:58.921Z,3.50
2022-10-02T09:14:50.602Z,3.27
2022-10-02T09:17:32.305Z,3.43
2022-10-02T09:20:34.246Z,3.00
2022-10-02T09:23:29.067Z,3.00
2022-10-02T09:26:08.624Z,2.60
2022-10-02T09:29:03.457Z,2.40
2022-10-02T09:32:04.180Z,2.93
2022-10-02T09:34:53.658Z,2.80
2022-10-02T09:37:59.670Z,2.60
2022-10-02T09:40:58.457Z,2.70
2022-10-02T09:44:03.530Z,4.10
2022-10-02T09:47:05.042Z,3.60
2022-10-02T09:50:12.700Z,4.10
2022-10-02T09:53:31.518Z,3.90
2022-10-02T09:56:39.746Z,3.77
2022-10-02T09:59:39.827Z,3.30
2022-10-02T10:02:39.624Z,2.97
2022-10-02T10:05:40.269Z,3.60
2022-10-02T10:08:26.150Z,3.17
2022-10-02T10:11:09.418Z,3.50
2022-10-02T10:14:00.508Z,3.53
2022-10-02T10:16:57.837Z,3.17
2022-10-02T10:19:59.720Z,3.20
2022-10-02T10:22:53.190Z,3.73
2022-10-02T10:25:50.206Z,3.57
2022-10-02T10:28:55.238Z,3.80
2022-10-02T10:32:00.346Z,2.90
2022-10-02T10:35:08.787Z,3.37
2022-10-02T10:38:12.912Z,3.00
2022-10-02T10:41:04.500Z,2.70
2022-10-02T10:44:29.385Z,2.90
2022-10-02T10:47:26.311Z,3.00
2022-10-02T10:50:26.600Z,2.83
2022-10-02T10:53:42.924Z,2.73
2022-10-02T10:56:37.124Z,3.43
2022-10-02T10:59:35.922Z,2.73
2022-10-02T11:02:24.535Z,2.30
2022-10-02T11:05:07.730Z,2.63
2022-10-02T11:07:53.594Z,3.00
2022-10-02T11:10:39.588Z,2.63
2022-10-02T11:13:22.717Z,3.40
2022-10-02T11:16:15.002Z,3.37
2022-10-02T11:19:09.147Z,2.93
2022-10-02T11:21:59.766Z,3.70
2022-10-02T11:24:58.984Z,2.70
2022-10-02T11:27:48.760Z,3.10
2022-10-02T11:30:23.299Z,3.20
2022-10-02T11:33:22.958Z,3.53
2022-10-02T11:36:08.793Z,2.93
2022-10-02T11:38:53.558Z,2.70
2022-10-02T11:41:45.074Z,2.93
2022-10-02T11:44:24.769Z,2.80
2022-10-02T11:47:20.482Z,3.03
2022-10-02T11:50:25.218Z,2.83
2022-10-02T11:53:34.503Z,3.00
2022-10-02T11:56:22.598Z,3.23
2022-10-02T11:59:01.331Z,3.37
2022-10-02T12:01:36.808Z,3.17
2022-10-02T12:04:23.051Z,3.20
2022-10-02T12:07:08.962Z,2.37
2022-10-02T12:09:49.799Z,2.97
2022-10-02T12:12:32.608Z,2.30
2022-10-02T12:15:10.743Z,2.70
2022-10-02T12:17:55.691Z,2.97
2022-10-02T12:20:56.911Z,3.43
2022-10-02T12:23:52.273Z,2.77
2022-10-02T12:26:55.740Z,3.23
2022-10-02T12:30:01.413Z,3.73
2022-10-02T12:32:44.405Z,2.67
2022-10-02T12:35:27.647Z,2.77
2022-10-02T12:38:06.258Z,2.50
2022-10-02T12:40:43.791Z,2.57
2022-10-02T12:43:27.890Z,2.43
2022-10-02T12:46:14.211Z,2.70
2022-10-02T12:49:03.979Z,3.33
2022-10-02T12:51:37.269Z,2.63
2022-10-02T12:54:53.353Z,2.97
2022-10-02T12:57:50.674Z,2.50
2022-10-02T13:00:20.765Z,2.57
2022-10-02T13:03:21.456Z,2.87
2022-10-02T13:06:10.770Z,2.90
2022-10-02T13:09:00.802Z,3.50
2022-10-02T13:11:41.069Z,3.87
2022-10-02T13:14:33.174Z,2.90
2022-10-02T13:17:15.049Z,3.47
2022-10-02T13:19:56.325Z,4.00
2022-10-02T13:22:34.728Z,3.13
2022-10-02T13:25:22.769Z,3.67
2022-10-02T13:28:01.802Z,3.27
2022-10-02T13:30:35.666Z,3.57
2022-10-02T13:33:21.356Z,3.57
2022-10-02T13:35:59.855Z,3.67
2022-10-02T13:38:59.423Z,3.87
2022-10-02T13:41:42.488Z,3.40
2022-10-02T13:44:22.160Z,3.23
2022-10-02T13:47:04.827Z,4.13
2022-10-02T13:49:54.131Z,4.00
2022-10-02T13:52:32.467Z,3.70
2022-10-02T13:55:22.909Z,3.40
2022-10-02T13:58:27.700Z,3.37
2022-10-02T14:01:05.075Z,3.40
2022-10-02T14:03:49.493Z,3.83
2022-10-02T14:06:23.007Z,4.23
2022-10-02T14:09:07.482Z,4.43
2022-10-02T14:11:49.609Z,3.20
2022-10-02T14:14:30.565Z,3.63
2022-10-02T14:17:10.111Z,3.50
2022-10-02T14:20:00.467Z,3.63
2022-10-02T14:22:38.516Z,4.27
2022-10-02T14:25:23.877Z,3.40
2022-10-02T14:28:26.628Z,3.70
2022-10-02T14:31:08.963Z,4.27
2022-10-02T14:33:58.684Z,3.47
2022-10-02T14:36:35.179Z,3.50
2022-10-02T14:39:23.806Z,3.87
2022-10-02T14:42:21.577Z,2.90
2022-10-02T14:45:13.234Z,3.50
2022-10-02T14:48:05.387Z,3.10
2022-10-02T14:50:59.891Z,3.07
2022-10-02T14:54:00.245Z,3.50
2022-10-02T14:56:54.157Z,3.07
2022-10-02T15:00:00.905Z,3.70
2022-10-02T15:02:47.441Z,3.50
2022-10-02T15:05:38.967Z,3.77
2022-10-02T15:08:14.484Z,3.83
2022-10-02T15:10:42.563Z,3.60
2022-10-02T15:13:24.333Z,4.03
2022-10-02T15:16:10.797Z,3.47
2022-10-02T15:18:45.837Z,4.03
2022-10-02T15:21:26.766Z,3.37
2022-10-02T15:23:58.914Z,3.33
2022-10-02T15:26:42.737Z,3.90
2022-10-02T15:29:21.766Z,4.63
2022-10-02T15:32:18.898Z,3.80
2022-10-02T15:34:54.942Z,3.93
2022-10-02T15:37:27.490Z,4.20
2022-10-02T15:40:16.882Z,4.07
2022-10-02T15:42:58.556Z,4.17
2022-10-02T15:45:46.464Z,3.93
2022-10-02T15:48:34.457Z,4.30
2022-10-02T15:51:12.734Z,4.37
2022-10-02T15:53:55.583Z,3.93
2022-10-02T15:56:39.804Z,4.10
2022-10-02T15:59:26.446Z,3.70
2022-10-02T16:02:04.766Z,3.63
2022-10-02T16:04:39.525Z,4.03
2022-10-02T16:07:42.692Z,4.33
2022-10-02T16:10:24.663Z,4.80
2022-10-02T16:13:27.036Z,4.60
2022-10-02T16:16:01.905Z,5.00
2022-10-02T16:18:52.559Z,3.80
2022-10-02T16:21:36.896Z,3.93
2022-10-02T16:24:24.212Z,4.03
2022-10-02T16:27:19.626Z,4.17
2022-10-02T16:30:05.355Z,4.13
2022-10-02T16:32:43.015Z,3.80
2022-10-02T16:35:26.174Z,4.30
2022-10-02T16:38:01.036Z,4.80
2022-10-02T16:40:39.825Z,4.23
2022-10-02T16:43:43.283Z,4.00
2022-10-02T16:46:14.977Z,4.33
2022-10-02T16:48:52.788Z,4.23
2022-10-02T16:51:45.674Z,3.90
2022-10-02T16:54:24.914Z,4.47
2022-10-02T16:56:57.323Z,5.00
2022-10-02T16:59:31.210Z,6.03
2022-10-02T17:02:18.183Z,3.47
2022-10-02T17:04:56.836Z,3.60
2022-10-02T17:07:43.984Z,3.93
2022-10-02T17:10:25.755Z,4.47
2022-10-02T17:13:01.425Z,4.03
2022-10-02T17:15:42.117Z,4.53
2022-10-02T17:18:23.674Z,3.90
2022-10-02T17:20:55.032Z,3.63
2022-10-02T17:23:29.318Z,3.97
2022-10-02T17:26:02.783Z,5.03
2022-10-02T17:28:39.141Z,4.53
2022-10-02T17:31:34.600Z,4.43
2022-10-02T17:34:17.839Z,4.03
2022-10-02T17:36:53.740Z,3.43
2022-10-02T17:39:37.601Z,4.67
2022-10-02T17:42:16.859Z,4.17
2022-10-02T17:44:53.717Z,3.80
2022-10-02T17:47:37.762Z,4.10
2022-10-02T17:50:32.534Z,5.03
2022-10-02T17:53:29.971Z,4.70
2022-10-02T17:56:29.100Z,3.83
2022-10-02T17:59:33.048Z,5.03
2022-10-02T18:02:07.513Z,4.27
2022-10-02T18:04:53.592Z,4.57
2022-10-02T18:07:40.767Z,4.77
2022-10-02T18:10:18.904Z,3.93
2022-10-02T18:13:02.481Z,4.10
2022-10-02T18:15:59.931Z,4.40
2022-10-02T18:18:38.988Z,4.97
2022-10-02T18:21:23.888Z,4.27
2022-10-02T18:24:15.501Z,3.87
2022-10-02T18:27:04.588Z,4.23
2022-10-02T18:29:45.704Z,4.10
2022-10-02T18:32:35.999Z,4.73
2022-10-02T18:35:28.297Z,5.13
2022-10-02T18:38:12.056Z,4.33
2022-10-02T18:40:57.618Z,4.03
2022-10-02T18:43:45.977Z,4.47
2022-10-02T18:46:24.260Z,3.63
2022-10-02T18:49:09.319Z,4.10
2022-10-02T18:52:05.153Z,3.63
2022-10-02T18:54:43.726Z,4.70
2022-10-02T18:57:26.308Z,4.27
2022-10-02T19:00:04.564Z,4.10
2022-10-02T19:02:53.079Z,4.50
2022-10-02T19:05:27.166Z,4.60
2022-10-02T19:08:08.595Z,3.87
2022-10-02T19:10:44.991Z,4.97
2022-10-02T19:13:18.310Z,3.90
2022-10-02T19:15:48.468Z,3.80
2022-10-02T19:18:18.984Z,4.27
2022-10-02T19:20:53.447Z,3.37
2022-10-02T19:23:38.408Z,3.40
2022-10-02T19:26:17.841Z,4.60
2022-10-02T19:28:49.192Z,4.47
2022-10-02T19:31:22.807Z,3.73
2022-10-02T19:33:56.784Z,4.57
2022-10-02T19:36:30.418Z,4.07
2022-10-02T19:39:02.451Z,4.83
2022-10-02T19:41:35.911Z,4.37
2022-10-02T19:44:08.199Z,3.83
2022-10-02T19:46:39.456Z,4.50
2022-10-02T19:49:09.610Z,3.53
2022-10-02T19:51:46.026Z,4.07
2022-10-02T19:54:19.891Z,3.60
2022-10-02T19:56:50.421Z,3.83
2022-10-02T19:59:20.639Z,3.80
2022-10-02T20:01:52.326Z,4.50
2022-10-02T20:04:22.777Z,3.77
2022-10-02T20:06:54.013Z,4.27
2022-10-02T20:09:28.462Z,3.87
2022-10-02T20:12:01.885Z,3.60
2022-10-02T20:14:36.414Z,3.80
2022-10-02T20:17:10.295Z,3.70
2022-10-02T20:19:45.361Z,3.20
2022-10-02T20:22:24.097Z,3.97
2022-10-02T20:24:57.596Z,4.23
2022-10-02T20:27:38.517Z,3.93
2022-10-02T20:30:12.169Z,4.37
2022-10-02T20:32:46.361Z,3.70
2022-10-02T20:35:19.905Z,3.40
2022-10-02T20:37:50.529Z,3.27
2022-10-02T20:40:22.070Z,3.63
2022-10-02T20:42:58.372Z,3.73
2022-10-02T20:45:34.324Z,3.47
2022-10-02T20:49:03.168Z,4.37
2022-10-02T20:51:45.058Z,3.90
2022-10-02T20:54:33.444Z,4.23
2022-10-02T20:57:29.881Z,3.07
2022-10-02T21:00:17.118Z,3.93
2022-10-02T21:03:29.551Z,3.87
2022-10-02T21:06:28.517Z,3.07
2022-10-02T21:09:40.810Z,3.83
2022-10-02T21:12:36.030Z,3.40
2022-10-02T21:15:23.684Z,3.20
2022-10-02T21:18:21.832Z,3.07
2022-10-02T21:21:23.245Z,3.47
2022-10-02T21:24:13.779Z,3.10
2022-10-02T21:27:21.010Z,4.10
2022-10-02T21:30:03.366Z,3.00
2022-10-02T21:33:05.086Z,3.43
2022-10-02T21:35:42.114Z,3.37
2022-10-02T21:38:31.065Z,3.70
2022-10-02T21:41:24.105Z,3.53
2022-10-02T21:44:18.083Z,3.50
2022-10-02T21:47:07.357Z,3.80
2022-10-02T21:50:18.613Z,4.67
2022-10-02T21:53:32.423Z,4.03
2022-10-02T21:56:24.659Z,4.20
2022-10-02T21:59:26.825Z,4.07
2022-10-02T22:02:24.386Z,4.23
2022-10-02T22:05:24.722Z,3.77
2022-10-02T22:08:01.889Z,3.77
2022-10-02T22:10:36.683Z,3.90
2022-10-02T22:13:21.008Z,3.33
2022-10-02T22:16:02.000Z,4.00
2022-10-02T22:18:42.179Z,4.53
2022-10-02T22:21:33.538Z,3.17
2022-10-02T22:24:13.236Z,2.90
2022-10-02T22:27:00.139Z,3.43
2022-10-02T22:29:37.179Z,3.73
2022-10-02T22:32:41.393Z,3.93
2022-10-02T22:35:19.625Z,3.20
2022-10-02T22:38:00.432Z,2.93
2022-10-02T22:40:42.457Z,3.60
2022-10-02T22:43:19.256Z,3.17
2022-10-02T22:45:51.888Z,3.33
2022-10-02T22:48:32.154Z,3.10
2022-10-02T22:51:05.846Z,3.40
2022-10-02T22:53:39.472Z,3.47
2022-10-02T22:56:21.098Z,3.83
2022-10-02T22:58:57.963Z,3.13
2022-10-02T23:01:38.858Z,3.20
2022-10-02T23:04:18.866Z,4.17
2022-10-02T23:06:51.458Z,2.43
2022-10-02T23:09:23.897Z,2.83
2022-10-02T23:12:02.034Z,3.37
2022-10-02T23:14:39.946Z,3.40
2022-10-02T23:17:16.024Z,3.30
2022-10-02T23:19:48.010Z,3.30
2022-10-02T23:22:26.209Z,3.40
2022-10-02T23:25:01.856Z,3.90
2022-10-02T23:27:39.511Z,3.00
2022-10-02T23:30:12.301Z,3.17
2022-10-02T23:32:47.297Z,3.23
2022-10-02T23:35:22.386Z,2.80
2022-10-02T23:37:57.875Z,3.30
2022-10-02T23:40:44.709Z,3.47
2022-10-02T23:43:18.003Z,2.90
2022-10-02T23:45:51.739Z,3.20
2022-10-02T23:48:19.981Z,3.53
2022-10-02T23:50:55.645Z,3.17
2022-10-02T23:53:44.859Z,3.70
2022-10-02T23:56:45.236Z,3.53
2022-10-02T23:59:29.684Z,3.27
